Terminal Aerodrome Forecast
Issued by NWS El Paso, TX

Home | Current Version | Previous Version | Text Only | Print | Product List | Glossary On
Versions: 1 2 3 4 5 6 7 8 9 10 11 12 13 14 15 16
000
FTUS44 KEPZ 011700
TAFELP
TAF
KELP 011737Z 0118/0218 02007KT P6SM SCT005 SCT040
      TEMPO 0118/0119 BKN005 BKN040
     FM012000 02007KT P6SM SCT060
     FM020000 07004KT P6SM SKC
     FM021000 VRB03KT 3SM BR BKN007
      TEMPO 0210/0214 1SM BR BKN005
     FM021700 VRB06KT P6SM FEW030=

USA.gov is the U.S. government's official web portal to all federal, state and local government web resources and services.